sensor_id;sensor_type;location;lat;lon;timestamp;pressure;altitude;pressure_sealevel;temperature;humidity
11643;BME280;5877;50.930;6.918;2023-02-17T00:04:21;101511.59;;;10.54;72.27
11643;BME280;5877;50.930;6.918;2023-02-17T00:09:13;101557.41;;;11.01;72.08
11643;BME280;5877;50.930;6.918;2023-02-17T00:14:05;101511.69;;;10.67;71.32
11643;BME280;5877;50.930;6.918;2023-02-17T00:19:00;101412.44;;;10.22;71.41
11643;BME280;5877;50.930;6.918;2023-02-17T00:23:52;101563.63;;;11.21;71.68
11643;BME280;5877;50.930;6.918;2023-02-17T00:28:45;101513.50;;;10.95;71.49
11643;BME280;5877;50.930;6.918;2023-02-17T00:33:37;101462.44;;;10.69;71.70
11643;BME280;5877;50.930;6.918;2023-02-17T00:38:29;101387.69;;;10.31;71.35
11643;BME280;5877;50.930;6.918;2023-02-17T00:43:20;101386.44;;;10.27;71.58
11643;BME280;5877;50.930;6.918;2023-02-17T00:48:12;101462.47;;;10.76;71.91
11643;BME280;5877;50.930;6.918;2023-02-17T00:53:04;101289.03;;;9.59;71.64
11643;BME280;5877;50.930;6.918;2023-02-17T00:57:56;101526.34;;;11.11;71.87
11643;BME280;5877;50.930;6.918;2023-02-17T01:02:49;101369.94;;;10.12;71.84
11643;BME280;5877;50.930;6.918;2023-02-17T01:07:41;101551.56;;;11.05;72.13
11643;BME280;5877;50.930;6.918;2023-02-17T01:12:33;101390.28;;;10.31;71.63
11643;BME280;5877;50.930;6.918;2023-02-17T01:17:25;101333.13;;;9.98;71.47
11643;BME280;5877;50.930;6.918;2023-02-17T01:22:18;101272.91;;;9.62;71.71
11643;BME280;5877;50.930;6.918;2023-02-17T01:27:11;101415.31;;;10.61;71.74
11643;BME280;5877;50.930;6.918;2023-02-17T01:32:03;101514.31;;;11.23;71.60
11643;BME280;5877;50.930;6.918;2023-02-17T01:36:54;101402.63;;;10.65;71.79
11643;BME280;5877;50.930;6.918;2023-02-17T01:41:46;101508.06;;;11.31;71.80
11643;BME280;5877;50.930;6.918;2023-02-17T01:46:40;101089.59;;;8.70;71.79
11643;BME280;5877;50.930;6.918;2023-02-17T01:51:34;101437.34;;;10.95;71.51
11643;BME280;5877;50.930;6.918;2023-02-17T01:56:30;101410.78;;;10.77;71.61
11643;BME280;5877;50.930;6.918;2023-02-17T02:01:23;101463.91;;;11.13;71.46
11643;BME280;5877;50.930;6.918;2023-02-17T02:06:19;101483.03;;;11.35;71.62
11643;BME280;5877;50.930;6.918;2023-02-17T02:11:13;101285.44;;;10.16;71.47
11643;BME280;5877;50.930;6.918;2023-02-17T02:22:08;101471.72;;;11.34;71.84
11643;BME280;5877;50.930;6.918;2023-02-17T02:31:58;101470.09;;;11.33;72.19
11643;BME280;5877;50.930;6.918;2023-02-17T02:37:16;101410.06;;;10.96;71.84
11643;BME280;5877;50.930;6.918;2023-02-17T02:42:13;101323.13;;;10.43;72.18
11643;BME280;5877;50.930;6.918;2023-02-17T02:57:51;101451.03;;;11.25;71.94
11643;BME280;5877;50.930;6.918;2023-02-17T03:02:57;101279.38;;;10.16;72.12
11643;BME280;5877;50.930;6.918;2023-02-17T03:08:07;101364.91;;;10.72;72.58
11643;BME280;5877;50.930;6.918;2023-02-17T03:13:02;101228.38;;;9.90;72.14
11643;BME280;5877;50.930;6.918;2023-02-17T03:17:58;101442.31;;;11.18;72.10
11643;BME280;5877;50.930;6.918;2023-02-17T03:22:51;101152.75;;;9.31;71.91
11643;BME280;5877;50.930;6.918;2023-02-17T03:27:43;101239.47;;;9.92;72.04
11643;BME280;5877;50.930;6.918;2023-02-17T03:32:37;101406.06;;;11.00;72.30
11643;BME280;5877;50.930;6.918;2023-02-17T03:37:28;101372.41;;;10.82;72.26
11643;BME280;5877;50.930;6.918;2023-02-17T03:42:20;101431.56;;;11.13;71.94
11643;BME280;5877;50.930;6.918;2023-02-17T03:47:12;101353.31;;;10.60;71.89
11643;BME280;5877;50.930;6.918;2023-02-17T03:52:04;101274.69;;;10.11;71.96
11643;BME280;5877;50.930;6.918;2023-02-17T03:56:55;101424.34;;;11.21;71.85
11643;BME280;5877;50.930;6.918;2023-02-17T04:01:47;101350.53;;;10.68;71.42
11643;BME280;5877;50.930;6.918;2023-02-17T04:06:39;101376.09;;;10.88;71.68
11643;BME280;5877;50.930;6.918;2023-02-17T04:11:31;101269.13;;;10.21;71.25
11643;BME280;5877;50.930;6.918;2023-02-17T04:16:23;101386.84;;;10.99;71.02
11643;BME280;5877;50.930;6.918;2023-02-17T04:21:15;101416.66;;;11.20;71.28
11643;BME280;5877;50.930;6.918;2023-02-17T04:26:07;101199.91;;;9.87;70.90
11643;BME280;5877;50.930;6.918;2023-02-17T04:30:59;101422.72;;;11.20;70.73
11643;BME280;5877;50.930;6.918;2023-02-17T04:35:51;101367.16;;;10.82;70.78
11643;BME280;5877;50.930;6.918;2023-02-17T04:40:49;101220.03;;;9.80;70.85
11643;BME280;5877;50.930;6.918;2023-02-17T04:45:41;101244.03;;;10.12;70.81
11643;BME280;5877;50.930;6.918;2023-02-17T04:50:33;101341.69;;;10.76;70.15
11643;BME280;5877;50.930;6.918;2023-02-17T04:55:24;101286.97;;;10.32;70.90
11643;BME280;5877;50.930;6.918;2023-02-17T05:00:16;101319.69;;;10.36;71.24
11643;BME280;5877;50.930;6.918;2023-02-17T05:05:08;101350.38;;;10.42;71.86
11643;BME280;5877;50.930;6.918;2023-02-17T05:10:00;101425.59;;;10.91;71.50
11643;BME280;5877;50.930;6.918;2023-02-17T05:14:52;101151.97;;;9.37;71.01
11643;BME280;5877;50.930;6.918;2023-02-17T05:19:43;101426.72;;;11.10;70.47
11643;BME280;5877;50.930;6.918;2023-02-17T05:24:35;101419.91;;;11.22;70.24
11643;BME280;5877;50.930;6.918;2023-02-17T05:29:29;101299.75;;;10.48;69.50
11643;BME280;5877;50.930;6.918;2023-02-17T05:34:21;101357.50;;;10.89;69.48
11643;BME280;5877;50.930;6.918;2023-02-17T05:39:12;101147.03;;;9.49;69.85
11643;BME280;5877;50.930;6.918;2023-02-17T05:44:04;101352.00;;;10.78;69.80
11643;BME280;5877;50.930;6.918;2023-02-17T05:48:57;101138.78;;;9.52;69.43
11643;BME280;5877;50.930;6.918;2023-02-17T05:53:49;101409.41;;;11.28;69.67
11643;BME280;5877;50.930;6.918;2023-02-17T05:58:41;101405.78;;;11.29;70.00
11643;BME280;5877;50.930;6.918;2023-02-17T06:03:33;101376.44;;;11.19;69.67
11643;BME280;5877;50.930;6.918;2023-02-17T06:08:25;101171.72;;;9.96;70.19
11643;BME280;5877;50.930;6.918;2023-02-17T06:13:16;101343.63;;;11.02;70.45
11643;BME280;5877;50.930;6.918;2023-02-17T06:18:08;101311.00;;;10.83;71.12
11643;BME280;5877;50.930;6.918;2023-02-17T06:23:00;101377.25;;;11.20;71.24
11643;BME280;5877;50.930;6.918;2023-02-17T06:27:52;101411.91;;;11.50;71.73
11643;BME280;5877;50.930;6.918;2023-02-17T06:32:44;101265.06;;;10.59;71.83
11643;BME280;5877;50.930;6.918;2023-02-17T06:37:35;101210.63;;;10.20;72.31
11643;BME280;5877;50.930;6.918;2023-02-17T06:42:27;101374.06;;;11.37;72.55
11643;BME280;5877;50.930;6.918;2023-02-17T06:47:19;101407.06;;;11.53;72.52
11643;BME280;5877;50.930;6.918;2023-02-17T06:52:11;101335.19;;;11.13;72.38
11643;BME280;5877;50.930;6.918;2023-02-17T06:57:02;101297.53;;;10.93;72.52
11643;BME280;5877;50.930;6.918;2023-02-17T07:01:54;101360.50;;;11.27;72.67
11643;BME280;5877;50.930;6.918;2023-02-17T07:06:46;101197.53;;;10.27;72.79
11643;BME280;5877;50.930;6.918;2023-02-17T07:11:38;101297.53;;;10.93;72.77
11643;BME280;5877;50.930;6.918;2023-02-17T07:16:30;101185.03;;;10.29;72.81
11643;BME280;5877;50.930;6.918;2023-02-17T07:21:22;101281.19;;;11.04;73.31
11643;BME280;5877;50.930;6.918;2023-02-17T07:26:14;101143.59;;;10.18;73.17
11643;BME280;5877;50.930;6.918;2023-02-17T07:31:12;101396.25;;;11.83;73.28
11643;BME280;5877;50.930;6.918;2023-02-17T07:36:06;101395.66;;;11.94;73.11
11643;BME280;5877;50.930;6.918;2023-02-17T07:41:11;101294.19;;;11.38;72.47
11643;BME280;5877;50.930;6.918;2023-02-17T07:46:04;101246.66;;;11.14;72.77
11643;BME280;5877;50.930;6.918;2023-02-17T07:50:56;101338.56;;;11.81;72.48
11643;BME280;5877;50.930;6.918;2023-02-17T07:55:48;101266.91;;;11.39;72.55
11643;BME280;5877;50.930;6.918;2023-02-17T08:00:41;101146.38;;;10.70;72.38
11643;BME280;5877;50.930;6.918;2023-02-17T08:05:33;101342.22;;;12.00;72.60
11643;BME280;5877;50.930;6.918;2023-02-17T08:10:24;101246.09;;;11.45;72.61
11643;BME280;5877;50.930;6.918;2023-02-17T08:15:35;101400.31;;;12.45;72.52
11643;BME280;5877;50.930;6.918;2023-02-17T08:20:27;101355.38;;;12.20;72.19
11643;BME280;5877;50.930;6.918;2023-02-17T08:25:18;101403.91;;;12.63;72.43
11643;BME280;5877;50.930;6.918;2023-02-17T08:30:10;101408.75;;;12.80;71.78
11643;BME280;5877;50.930;6.918;2023-02-17T08:35:03;101406.25;;;12.98;71.01
11643;BME280;5877;50.930;6.918;2023-02-17T08:39:56;101359.28;;;12.88;70.16
11643;BME280;5877;50.930;6.918;2023-02-17T08:44:49;101349.22;;;13.10;69.25
11643;BME280;5877;50.930;6.918;2023-02-17T08:49:41;101278.69;;;12.67;68.64
11643;BME280;5877;50.930;6.918;2023-02-17T08:54:33;101291.59;;;12.89;68.50
11643;BME280;5877;50.930;6.918;2023-02-17T08:59:24;101401.97;;;13.55;68.35
11643;BME280;5877;50.930;6.918;2023-02-17T09:04:17;101349.25;;;13.48;67.60
11643;BME280;5877;50.930;6.918;2023-02-17T09:09:11;101301.28;;;13.33;67.07
11643;BME280;5877;50.930;6.918;2023-02-17T09:14:04;101356.84;;;13.94;66.09
11643;BME280;5877;50.930;6.918;2023-02-17T09:18:56;101078.38;;;12.31;64.93
11643;BME280;5877;50.930;6.918;2023-02-17T09:23:48;101108.03;;;13.01;64.08
11643;BME280;5877;50.930;6.918;2023-02-17T09:28:41;101400.88;;;15.23;62.79
11643;BME280;5877;50.930;6.918;2023-02-17T09:33:32;101261.44;;;14.52;61.79
11643;BME280;5877;50.930;6.918;2023-02-17T09:38:24;101274.88;;;14.69;61.24
11643;BME280;5877;50.930;6.918;2023-02-17T09:43:18;101310.94;;;15.23;60.91
11643;BME280;5877;50.930;6.918;2023-02-17T09:48:14;101187.97;;;14.61;60.11
11643;BME280;5877;50.930;6.918;2023-02-17T09:53:25;101399.19;;;16.12;59.37
11643;BME280;5877;50.930;6.918;2023-02-17T10:03:22;101408.88;;;16.53;57.92
11643;BME280;5877;50.930;6.918;2023-02-17T10:08:24;101166.88;;;15.14;57.21
11643;BME280;5877;50.930;6.918;2023-02-17T10:13:19;101410.13;;;16.86;56.55
11643;BME280;5877;50.930;6.918;2023-02-17T10:18:18;101377.72;;;16.96;55.78
11643;BME280;5877;50.930;6.918;2023-02-17T10:23:24;101413.31;;;17.40;55.40
11643;BME280;5877;50.930;6.918;2023-02-17T10:28:21;101343.72;;;16.93;55.11
11643;BME280;5877;50.930;6.918;2023-02-17T10:33:35;101203.53;;;16.16;54.96
11643;BME280;5877;50.930;6.918;2023-02-17T10:43:30;101383.13;;;17.29;54.59
11643;BME280;5877;50.930;6.918;2023-02-17T10:48:27;101208.63;;;16.46;54.32
11643;BME280;5877;50.930;6.918;2023-02-17T10:53:33;101156.91;;;16.43;53.39
11643;BME280;5877;50.930;6.918;2023-02-17T11:03:33;101403.47;;;18.14;53.16
11643;BME280;5877;50.930;6.918;2023-02-17T11:13:37;101381.50;;;18.02;53.04
11643;BME280;5877;50.930;6.918;2023-02-17T11:18:35;101263.09;;;17.39;53.34
11643;BME280;5877;50.930;6.918;2023-02-17T11:23:30;101379.25;;;17.94;53.82
11643;BME280;5877;50.930;6.918;2023-02-17T11:28:23;101390.13;;;17.64;54.77
11643;BME280;5877;50.930;6.918;2023-02-17T11:33:20;101364.63;;;17.17;55.62
11643;BME280;5877;50.930;6.918;2023-02-17T11:38:22;101384.47;;;17.43;55.68
11643;BME280;5877;50.930;6.918;2023-02-17T11:43:15;101391.38;;;17.44;55.93
11643;BME280;5877;50.930;6.918;2023-02-17T12:18:32;101253.41;;;16.71;54.65
11643;BME280;5877;50.930;6.918;2023-02-17T12:28:44;101339.81;;;17.69;53.71
11643;BME280;5877;50.930;6.918;2023-02-17T12:38:54;101042.22;;;16.14;53.26
11643;BME280;5877;50.930;6.918;2023-02-17T12:43:57;101351.00;;;17.88;53.49
11643;BME280;5877;50.930;6.918;2023-02-17T12:49:07;101290.75;;;17.26;53.44
11643;BME280;5877;50.930;6.918;2023-02-17T12:59:10;101244.22;;;16.90;53.82
11643;BME280;5877;50.930;6.918;2023-02-17T13:04:03;101073.75;;;15.87;54.12
11643;BME280;5877;50.930;6.918;2023-02-17T13:09:00;101132.22;;;16.26;54.18
11643;BME280;5877;50.930;6.918;2023-02-17T13:13:53;101267.38;;;17.40;54.09
11643;BME280;5877;50.930;6.918;2023-02-17T13:18:47;101326.69;;;17.79;53.48
11643;BME280;5877;50.930;6.918;2023-02-17T13:23:43;101329.66;;;17.82;53.51
11643;BME280;5877;50.930;6.918;2023-02-17T13:28:37;101336.63;;;17.55;54.37
11643;BME280;5877;50.930;6.918;2023-02-17T13:33:30;101111.97;;;16.20;54.36
11643;BME280;5877;50.930;6.918;2023-02-17T13:38:30;101338.66;;;17.65;54.44
11643;BME280;5877;50.930;6.918;2023-02-17T13:43:22;101235.56;;;17.11;53.90
11643;BME280;5877;50.930;6.918;2023-02-17T13:48:21;101331.84;;;17.69;54.46
11643;BME280;5877;50.930;6.918;2023-02-17T13:53:28;101351.34;;;17.17;55.45
11643;BME280;5877;50.930;6.918;2023-02-17T13:58:27;101356.94;;;17.04;55.79
11643;BME280;5877;50.930;6.918;2023-02-17T14:03:27;101285.41;;;16.29;56.73
11643;BME280;5877;50.930;6.918;2023-02-17T14:08:39;101205.44;;;15.69;57.54
11643;BME280;5877;50.930;6.918;2023-02-17T14:13:31;101380.75;;;16.52;57.74
11643;BME280;5877;50.930;6.918;2023-02-17T14:18:38;101328.34;;;15.96;58.29
11643;BME280;5877;50.930;6.918;2023-02-17T14:23:49;101381.56;;;16.18;58.48
11643;BME280;5877;50.930;6.918;2023-02-17T14:28:55;101263.41;;;15.47;58.32
11643;BME280;5877;50.930;6.918;2023-02-17T14:33:56;101286.44;;;15.81;57.92
11643;BME280;5877;50.930;6.918;2023-02-17T14:38:53;101401.63;;;16.49;57.72
11643;BME280;5877;50.930;6.918;2023-02-17T14:43:45;101291.75;;;15.58;57.94
11643;BME280;5877;50.930;6.918;2023-02-17T14:48:37;101259.13;;;15.34;58.21
11643;BME280;5877;50.930;6.918;2023-02-17T14:53:31;101421.19;;;16.13;58.27
11643;BME280;5877;50.930;6.918;2023-02-17T14:58:25;101379.16;;;15.63;58.64
11643;BME280;5877;50.930;6.918;2023-02-17T15:03:17;101422.94;;;15.77;58.61
11643;BME280;5877;50.930;6.918;2023-02-17T15:08:15;101418.53;;;15.60;59.40
11643;BME280;5877;50.930;6.918;2023-02-17T15:13:16;101406.81;;;15.37;59.33
11643;BME280;5877;50.930;6.918;2023-02-17T15:18:14;101431.28;;;15.33;59.66
11643;BME280;5877;50.930;6.918;2023-02-17T15:23:12;101229.19;;;13.89;59.88
11643;BME280;5877;50.930;6.918;2023-02-17T15:28:04;101302.78;;;14.22;60.25
11643;BME280;5877;50.930;6.918;2023-02-17T15:32:57;101321.00;;;14.30;60.37
11643;BME280;5877;50.930;6.918;2023-02-17T15:37:49;101442.31;;;14.93;61.51
11643;BME280;5877;50.930;6.918;2023-02-17T15:42:42;101455.88;;;14.78;62.28
11643;BME280;5877;50.930;6.918;2023-02-17T15:47:35;101389.91;;;14.22;62.49
11643;BME280;5877;50.930;6.918;2023-02-17T15:52:26;101420.81;;;14.46;62.51
11643;BME280;5877;50.930;6.918;2023-02-17T15:57:21;101305.06;;;13.44;62.86
11643;BME280;5877;50.930;6.918;2023-02-17T16:02:21;101463.63;;;14.23;63.00
11643;BME280;5877;50.930;6.918;2023-02-17T16:07:14;101501.78;;;14.27;63.37
11643;BME280;5877;50.930;6.918;2023-02-17T16:12:17;101505.50;;;14.20;63.62
11643;BME280;5877;50.930;6.918;2023-02-17T16:17:17;101514.75;;;14.04;63.92
11643;BME280;5877;50.930;6.918;2023-02-17T16:22:08;101073.06;;;11.02;64.97
11643;BME280;5877;50.930;6.918;2023-02-17T16:27:00;101528.28;;;13.76;65.67
11643;BME280;5877;50.930;6.918;2023-02-17T16:31:52;101481.97;;;13.36;65.74
11643;BME280;5877;50.930;6.918;2023-02-17T16:36:47;101501.06;;;13.24;66.72
11643;BME280;5877;50.930;6.918;2023-02-17T16:41:39;101506.00;;;12.94;67.03
11643;BME280;5877;50.930;6.918;2023-02-17T16:46:33;101224.03;;;11.13;68.54
11643;BME280;5877;50.930;6.918;2023-02-17T16:51:26;101338.13;;;11.64;69.30
11643;BME280;5877;50.930;6.918;2023-02-17T16:56:40;101593.97;;;12.80;73.39
11643;BME280;5877;50.930;6.918;2023-02-17T17:01:33;101594.97;;;12.59;74.31
11643;BME280;5877;50.930;6.918;2023-02-17T17:06:27;101290.47;;;10.52;73.91
11643;BME280;5877;50.930;6.918;2023-02-17T17:11:23;101615.41;;;12.44;73.75
11643;BME280;5877;50.930;6.918;2023-02-17T17:16:20;101602.84;;;12.46;73.77
11643;BME280;5877;50.930;6.918;2023-02-17T17:21:14;101393.34;;;11.03;73.76
11643;BME280;5877;50.930;6.918;2023-02-17T17:31:11;101388.66;;;10.99;72.66
11643;BME280;5877;50.930;6.918;2023-02-17T17:36:11;101391.69;;;10.96;71.91
11643;BME280;5877;50.930;6.918;2023-02-17T17:41:05;101496.91;;;11.63;71.52
11643;BME280;5877;50.930;6.918;2023-02-17T17:45:57;101631.19;;;12.38;71.65
11643;BME280;5877;50.930;6.918;2023-02-17T17:50:49;101492.16;;;11.39;71.88
11643;BME280;5877;50.930;6.918;2023-02-17T17:55:40;101490.72;;;11.36;71.52
11643;BME280;5877;50.930;6.918;2023-02-17T18:00:32;101263.84;;;9.86;71.84
11643;BME280;5877;50.930;6.918;2023-02-17T18:05:24;101606.56;;;12.04;72.14
11643;BME280;5877;50.930;6.918;2023-02-17T18:10:16;101649.31;;;12.13;72.06
11643;BME280;5877;50.930;6.918;2023-02-17T18:15:08;101544.31;;;11.42;72.06
11643;BME280;5877;50.930;6.918;2023-02-17T18:20:01;101608.69;;;11.81;71.93
11643;BME280;5877;50.930;6.918;2023-02-17T18:24:53;101498.88;;;11.14;71.79
11643;BME280;5877;50.930;6.918;2023-02-17T18:29:44;101590.94;;;11.61;72.08
11643;BME280;5877;50.930;6.918;2023-02-17T18:34:36;101695.13;;;12.25;72.03
11643;BME280;5877;50.930;6.918;2023-02-17T18:39:28;101211.06;;;9.19;72.11
11643;BME280;5877;50.930;6.918;2023-02-17T18:44:20;101560.88;;;11.36;72.33
11643;BME280;5877;50.930;6.918;2023-02-17T18:49:12;101687.16;;;12.12;72.25
11643;BME280;5877;50.930;6.918;2023-02-17T18:54:04;101635.09;;;11.73;72.04
11643;BME280;5877;50.930;6.918;2023-02-17T18:59:01;101446.97;;;10.53;72.23
11643;BME280;5877;50.930;6.918;2023-02-17T19:03:54;101742.09;;;12.28;72.15
11643;BME280;5877;50.930;6.918;2023-02-17T19:08:47;101505.88;;;10.72;72.34
11643;BME280;5877;50.930;6.918;2023-02-17T19:13:39;101714.25;;;12.06;72.64
11643;BME280;5877;50.930;6.918;2023-02-17T19:18:32;101691.41;;;11.78;72.78
11643;BME280;5877;50.930;6.918;2023-02-17T19:23:23;101711.16;;;11.95;72.54
11643;BME280;5877;50.930;6.918;2023-02-17T19:28:15;101674.03;;;11.56;72.98
11643;BME280;5877;50.930;6.918;2023-02-17T19:33:07;101749.31;;;12.13;72.46
11643;BME280;5877;50.930;6.918;2023-02-17T19:37:59;101687.16;;;11.49;73.13
11643;BME280;5877;50.930;6.918;2023-02-17T19:42:50;101657.94;;;11.37;73.03
11643;BME280;5877;50.930;6.918;2023-02-17T19:47:42;101739.28;;;11.95;72.51
11643;BME280;5877;50.930;6.918;2023-02-17T19:52:35;101734.59;;;11.90;72.67
11643;BME280;5877;50.930;6.918;2023-02-17T19:57:27;101420.00;;;9.74;72.56
11643;BME280;5877;50.930;6.918;2023-02-17T20:02:20;101527.00;;;10.36;72.68
11643;BME280;5877;50.930;6.918;2023-02-17T20:07:12;101774.06;;;11.90;73.80
11643;BME280;5877;50.930;6.918;2023-02-17T20:12:04;101712.81;;;11.47;73.14
11643;BME280;5877;50.930;6.918;2023-02-17T20:16:56;101720.50;;;11.49;72.82
11643;BME280;5877;50.930;6.918;2023-02-17T20:21:50;101712.25;;;11.52;72.98
11643;BME280;5877;50.930;6.918;2023-02-17T20:26:44;101707.38;;;11.49;73.24
11643;BME280;5877;50.930;6.918;2023-02-17T20:31:37;101646.03;;;11.14;72.73
11643;BME280;5877;50.930;6.918;2023-02-17T20:36:31;101485.09;;;10.06;72.98
11643;BME280;5877;50.930;6.918;2023-02-17T20:41:23;101784.81;;;11.95;72.77
11643;BME280;5877;50.930;6.918;2023-02-17T20:46:20;101551.72;;;10.48;73.06
11643;BME280;5877;50.930;6.918;2023-02-17T20:51:13;101680.28;;;11.27;73.21
11643;BME280;5877;50.930;6.918;2023-02-17T20:56:17;101693.06;;;11.30;73.13
11643;BME280;5877;50.930;6.918;2023-02-17T21:01:09;101623.84;;;10.73;72.73
11643;BME280;5877;50.930;6.918;2023-02-17T21:06:03;101792.88;;;11.87;73.05
11643;BME280;5877;50.930;6.918;2023-02-17T21:10:56;101595.72;;;10.67;72.90
11643;BME280;5877;50.930;6.918;2023-02-17T21:15:48;101479.53;;;9.95;72.49
11643;BME280;5877;50.930;6.918;2023-02-17T21:20:40;101604.22;;;10.69;72.63
11643;BME280;5877;50.930;6.918;2023-02-17T21:25:32;101457.78;;;9.80;72.42
11643;BME280;5877;50.930;6.918;2023-02-17T21:30:24;101508.25;;;10.03;72.66
11643;BME280;5877;50.930;6.918;2023-02-17T21:35:16;101563.56;;;10.44;72.55
11643;BME280;5877;50.930;6.918;2023-02-17T21:40:10;101638.66;;;10.81;73.15
11643;BME280;5877;50.930;6.918;2023-02-17T21:45:02;101655.09;;;10.90;73.00
11643;BME280;5877;50.930;6.918;2023-02-17T21:49:54;101709.78;;;11.22;72.69
11643;BME280;5877;50.930;6.918;2023-02-17T21:54:46;101787.94;;;11.78;72.95
11643;BME280;5877;50.930;6.918;2023-02-17T21:59:38;101795.88;;;11.84;72.42
11643;BME280;5877;50.930;6.918;2023-02-17T22:04:30;101672.88;;;11.09;72.61
11643;BME280;5877;50.930;6.918;2023-02-17T22:09:23;101333.66;;;8.94;72.20
11643;BME280;5877;50.930;6.918;2023-02-17T22:14:19;101802.31;;;11.82;72.96
11643;BME280;5877;50.930;6.918;2023-02-17T22:19:16;101798.06;;;11.81;73.10
11643;BME280;5877;50.930;6.918;2023-02-17T22:24:09;101599.94;;;10.47;72.90
11643;BME280;5877;50.930;6.918;2023-02-17T22:29:01;101600.91;;;10.61;72.78
11643;BME280;5877;50.930;6.918;2023-02-17T22:33:55;101787.56;;;11.81;72.54
11643;BME280;5877;50.930;6.918;2023-02-17T22:38:48;101718.16;;;11.32;72.71
11643;BME280;5877;50.930;6.918;2023-02-17T22:43:41;101774.78;;;11.78;72.75
11643;BME280;5877;50.930;6.918;2023-02-17T22:48:35;101588.34;;;10.56;72.90
11643;BME280;5877;50.930;6.918;2023-02-17T22:53:29;101441.28;;;9.64;72.41
11643;BME280;5877;50.930;6.918;2023-02-17T22:58:22;101762.06;;;11.81;72.60
11643;BME280;5877;50.930;6.918;2023-02-17T23:03:17;101590.84;;;10.64;72.76
11643;BME280;5877;50.930;6.918;2023-02-17T23:08:10;101773.69;;;11.72;73.13
11643;BME280;5877;50.930;6.918;2023-02-17T23:13:01;101526.69;;;10.24;72.77
11643;BME280;5877;50.930;6.918;2023-02-17T23:17:53;101585.34;;;10.59;72.89
11643;BME280;5877;50.930;6.918;2023-02-17T23:22:48;101661.72;;;11.07;72.97
11643;BME280;5877;50.930;6.918;2023-02-17T23:27:40;101655.03;;;11.04;73.46
11643;BME280;5877;50.930;6.918;2023-02-17T23:32:34;101613.53;;;10.72;73.82
11643;BME280;5877;50.930;6.918;2023-02-17T23:37:25;101446.97;;;9.68;73.51
11643;BME280;5877;50.930;6.918;2023-02-17T23:42:17;101764.81;;;11.73;74.06
11643;BME280;5877;50.930;6.918;2023-02-17T23:47:09;101612.91;;;10.70;73.83
11643;BME280;5877;50.930;6.918;2023-02-17T23:52:00;101740.97;;;11.53;74.21
11643;BME280;5877;50.930;6.918;2023-02-17T23:56:53;101735.41;;;11.42;74.52
